Time;durP1;ratioP1;P1;durP2;ratioP2;P2;SDS_P1;SDS_P2;PMS_P1;PMS_P2;Temp;Humidity;BMP_temperature;BMP_pressure;BME280_temperature;BME280_humidity;BME280_pressure;Samples;Min_cycle;Max_cycle;Signal;HPM_P1;HPM_P2
2023/07/10 00:01:45;;;;;;;8.80;6.15;;;26.70;78.10;;;;;;5073838;28;20052;-73
2023/07/10 00:04:15;;;;;;;6.97;5.88;;;26.70;78.00;;;;;;5073864;28;20012;-74
2023/07/10 00:06:41;;;;;;;9.50;5.78;;;26.70;78.00;;;;;;5074048;28;20030;-73
2023/07/10 00:09:07;;;;;;;12.48;6.25;;;26.60;78.00;;;;;;5073826;28;20020;-73
2023/07/10 00:11:33;;;;;;;10.48;6.22;;;26.60;78.00;;;;;;5073875;28;20084;-73
2023/07/10 00:13:59;;;;;;;9.07;6.20;;;26.60;77.80;;;;;;5055760;28;20074;-73
2023/07/10 00:16:26;;;;;;;7.05;5.95;;;26.60;77.60;;;;;;5073564;28;20055;-73
2023/07/10 00:18:52;;;;;;;13.07;5.78;;;26.60;77.50;;;;;;5073643;28;20031;-74
2023/07/10 00:21:18;;;;;;;8.98;6.68;;;26.50;77.50;;;;;;5073532;28;20016;-73
2023/07/10 00:23:44;;;;;;;9.35;6.03;;;26.60;77.40;;;;;;5073374;28;20028;-74
2023/07/10 00:26:25;;;;;;;8.77;6.07;;;26.50;77.40;;;;;;5073517;28;20066;-74
2023/07/10 00:28:55;;;;;;;7.22;5.65;;;26.50;77.50;;;;;;5073288;28;20029;-74
2023/07/10 00:31:21;;;;;;;15.10;6.47;;;26.50;77.70;;;;;;5073246;28;20482;-74
2023/07/10 00:33:47;;;;;;;9.10;5.85;;;26.50;78.00;;;;;;5072633;28;20074;-74
2023/07/10 00:36:40;;;;;;;9.65;6.57;;;26.40;78.10;;;;;;5073004;28;20024;-74
2023/07/10 00:39:28;;;;;;;9.95;6.43;;;26.40;78.30;;;;;;5064927;28;20039;-74
2023/07/10 00:42:04;;;;;;;9.15;6.93;;;26.40;78.30;;;;;;5073123;28;20024;-74
2023/07/10 00:44:37;;;;;;;9.43;5.75;;;26.40;78.60;;;;;;5072994;28;20031;-74
2023/07/10 00:47:13;;;;;;;8.75;6.40;;;26.30;78.50;;;;;;5073156;28;20094;-74
2023/07/10 00:49:55;;;;;;;10.93;6.50;;;26.40;78.80;;;;;;5072977;28;20512;-74
2023/07/10 00:52:44;;;;;;;10.13;6.88;;;26.30;78.80;;;;;;5072947;28;20024;-74
2023/07/10 00:55:35;;;;;;;10.52;6.60;;;26.30;78.90;;;;;;5072965;28;20025;-74
2023/07/10 00:58:24;;;;;;;8.73;5.90;;;26.30;79.00;;;;;;5061786;28;20119;-74
2023/07/10 01:01:10;;;;;;;9.15;6.28;;;26.20;79.10;;;;;;5070147;28;20020;-74
2023/07/10 01:03:37;;;;;;;7.25;6.05;;;26.20;79.20;;;;;;5051859;28;20029;-74
2023/07/10 01:06:12;;;;;;;9.27;5.97;;;26.20;79.30;;;;;;5072503;28;20036;-74
2023/07/10 01:08:41;;;;;;;8.10;5.93;;;26.20;79.50;;;;;;5072538;28;20024;-74
2023/07/10 01:11:07;;;;;;;8.70;5.47;;;26.10;78.90;;;;;;5072908;28;20470;-74
2023/07/10 01:13:37;;;;;;;10.52;6.28;;;26.10;78.70;;;;;;5072550;28;20104;-74
2023/07/10 01:16:03;;;;;;;8.95;6.47;;;26.00;78.50;;;;;;5072506;28;20049;-74
2023/07/10 01:18:29;;;;;;;8.93;6.00;;;26.00;78.70;;;;;;5072687;28;20028;-74
2023/07/10 01:21:07;;;;;;;6.78;5.57;;;26.00;78.80;;;;;;5072506;28;20028;-74
2023/07/10 01:23:32;;;;;;;9.30;6.47;;;25.90;78.70;;;;;;5054684;28;20031;-74
2023/07/10 01:26:01;;;;;;;8.35;5.85;;;25.90;78.50;;;;;;5072548;28;20013;-73
2023/07/10 01:28:28;;;;;;;9.57;5.95;;;25.90;78.50;;;;;;5072329;28;20024;-74
2023/07/10 01:30:56;;;;;;;12.68;5.70;;;25.90;78.40;;;;;;5072397;28;20574;-74
2023/07/10 01:33:28;;;;;;;9.73;5.70;;;25.80;78.50;;;;;;5072756;28;20029;-74
2023/07/10 01:36:00;;;;;;;7.93;5.90;;;25.80;78.60;;;;;;5054636;28;20486;-74
2023/07/10 01:38:58;;;;;;;7.05;6.25;;;25.70;78.80;;;;;;5072453;28;20040;-74
2023/07/10 01:41:39;;;;;;;8.45;5.88;;;25.70;78.70;;;;;;5072168;28;20039;-74
2023/07/10 01:44:23;;;;;;;11.50;6.15;;;25.70;78.60;;;;;;5072454;28;20458;-74
2023/07/10 01:46:51;;;;;;;9.45;5.90;;;25.60;78.60;;;;;;5075543;28;20028;-75
2023/07/10 01:49:43;;;;;;;18.05;6.32;;;25.60;78.70;;;;;;5076499;28;20437;-74
2023/07/10 01:52:11;;;;;;;18.92;6.20;;;25.60;78.80;;;;;;5076342;28;20501;-73
2023/07/10 01:54:38;;;;;;;12.75;6.22;;;25.60;78.80;;;;;;5076469;28;20411;-73
2023/07/10 01:57:05;;;;;;;12.95;5.80;;;25.60;78.90;;;;;;5076444;28;20046;-73
2023/07/10 01:59:31;;;;;;;20.60;6.15;;;25.50;78.90;;;;;;5076299;28;20513;-73
2023/07/10 02:01:59;;;;;;;10.15;5.78;;;25.50;78.70;;;;;;5076217;28;20055;-73
2023/07/10 02:04:24;;;;;;;7.55;6.13;;;25.50;78.90;;;;;;5076250;28;20024;-73
2023/07/10 02:06:54;;;;;;;9.27;5.70;;;25.40;78.70;;;;;;5076264;28;20081;-73
2023/07/10 02:09:21;;;;;;;9.98;5.90;;;25.40;78.70;;;;;;5076090;28;20025;-72
2023/07/10 02:11:46;;;;;;;10.60;6.15;;;25.40;78.70;;;;;;5075930;28;20028;-73
2023/07/10 02:14:12;;;;;;;9.93;6.60;;;25.40;78.90;;;;;;5076055;28;20025;-73
2023/07/10 02:16:38;;;;;;;8.93;6.13;;;25.40;78.80;;;;;;5075780;28;20068;-73
2023/07/10 02:19:05;;;;;;;10.77;6.70;;;25.40;78.80;;;;;;5075878;28;20024;-72
2023/07/10 02:21:34;;;;;;;13.18;6.30;;;25.40;78.80;;;;;;5075835;28;20425;-73
2023/07/10 02:24:00;;;;;;;10.13;6.40;;;25.40;78.60;;;;;;5075622;28;20020;-73
2023/07/10 02:26:28;;;;;;;9.25;5.97;;;25.40;78.60;;;;;;5075689;28;20470;-73
2023/07/10 02:28:54;;;;;;;18.65;7.43;;;25.40;78.80;;;;;;5075700;28;20013;-73
2023/07/10 02:31:20;;;;;;;48.28;9.30;;;25.30;78.90;;;;;;5075736;28;20535;-73
2023/07/10 02:33:46;;;;;;;43.03;8.32;;;25.30;79.00;;;;;;5075548;28;20074;-73
2023/07/10 02:36:12;;;;;;;27.45;7.72;;;25.30;79.20;;;;;;5075399;28;20086;-73
2023/07/10 02:38:38;;;;;;;8.98;6.35;;;25.30;79.50;;;;;;5075551;28;20039;-72
2023/07/10 02:41:04;;;;;;;12.70;6.63;;;25.20;79.70;;;;;;5075545;28;20024;-73
2023/07/10 02:43:30;;;;;;;8.30;6.32;;;25.20;79.80;;;;;;5057387;28;20048;-74
2023/07/10 02:45:55;;;;;;;9.80;6.30;;;25.20;79.80;;;;;;5057158;28;20033;-73
2023/07/10 02:48:21;;;;;;;6.93;6.15;;;25.20;79.70;;;;;;5075405;28;20090;-73
2023/07/10 02:50:47;;;;;;;11.82;5.80;;;25.20;79.50;;;;;;5075212;28;20067;-73
2023/07/10 02:53:13;;;;;;;9.60;6.35;;;25.20;79.60;;;;;;5075506;28;20024;-73
2023/07/10 02:55:39;;;;;;;9.18;6.00;;;25.20;79.60;;;;;;5075332;28;20029;-73
2023/07/10 02:58:06;;;;;;;11.00;7.03;;;25.20;79.90;;;;;;5074411;28;20032;-73
2023/07/10 03:00:32;;;;;;;9.13;6.05;;;25.20;79.90;;;;;;5074923;28;20021;-72
2023/07/10 03:02:57;;;;;;;9.63;6.15;;;25.20;79.90;;;;;;5057134;28;20029;-73
2023/07/10 03:05:25;;;;;;;10.23;6.13;;;25.10;79.80;;;;;;5075005;28;20039;-73
2023/07/10 03:07:51;;;;;;;13.43;5.80;;;25.10;79.80;;;;;;5075196;28;20155;-73
2023/07/10 03:10:18;;;;;;;10.30;6.22;;;25.10;79.90;;;;;;5075010;28;20081;-73
2023/07/10 03:12:44;;;;;;;10.40;6.20;;;25.10;80.00;;;;;;5074594;28;20066;-73
2023/07/10 03:15:10;;;;;;;8.55;6.00;;;25.10;79.90;;;;;;5074465;28;20466;-73
2023/07/10 03:17:36;;;;;;;7.43;5.97;;;25.00;80.00;;;;;;5074729;28;20036;-73
2023/07/10 03:20:02;;;;;;;10.20;5.90;;;25.00;80.00;;;;;;5056815;28;20079;-73
2023/07/10 03:22:28;;;;;;;8.43;6.57;;;25.00;79.70;;;;;;5074629;28;20479;-73
2023/07/10 03:24:54;;;;;;;11.50;6.47;;;25.00;79.60;;;;;;5074792;28;20035;-74
2023/07/10 03:27:20;;;;;;;15.05;6.57;;;25.00;79.50;;;;;;5074610;28;20043;-74
2023/07/10 03:29:46;;;;;;;14.85;6.72;;;25.00;79.60;;;;;;5074477;28;20025;-74
2023/07/10 03:32:12;;;;;;;11.98;6.65;;;25.00;79.60;;;;;;5074552;28;20025;-74
2023/07/10 03:34:38;;;;;;;13.73;6.72;;;24.90;79.70;;;;;;5074362;28;20078;-74
2023/07/10 03:37:04;;;;;;;8.85;5.88;;;24.90;79.90;;;;;;5074330;28;20033;-74
2023/07/10 03:39:30;;;;;;;8.88;5.90;;;24.90;80.00;;;;;;5074818;28;20386;-74
2023/07/10 03:41:56;;;;;;;13.55;6.25;;;24.90;80.20;;;;;;5074343;28;20108;-73
2023/07/10 03:44:22;;;;;;;13.15;6.15;;;24.90;80.20;;;;;;5073909;28;20496;-73
2023/07/10 03:46:47;;;;;;;12.40;6.65;;;24.80;80.10;;;;;;5074229;28;20107;-74
2023/07/10 03:49:13;;;;;;;9.75;6.25;;;24.80;80.10;;;;;;5056261;28;20107;-74
2023/07/10 03:51:39;;;;;;;12.80;6.35;;;24.80;80.30;;;;;;5074436;28;20047;-73
2023/07/10 03:54:05;;;;;;;9.85;6.57;;;24.80;80.40;;;;;;5074154;28;20024;-74
2023/07/10 03:56:31;;;;;;;16.85;6.82;;;24.80;80.60;;;;;;5073944;28;20031;-75
2023/07/10 03:58:57;;;;;;;13.30;6.20;;;24.80;80.60;;;;;;5073780;28;20039;-74
2023/07/10 04:01:24;;;;;;;17.67;6.85;;;24.70;80.70;;;;;;5073970;28;20096;-74
2023/07/10 04:03:50;;;;;;;17.70;6.63;;;24.70;80.90;;;;;;5074026;28;20039;-74
2023/07/10 04:06:16;;;;;;;14.07;7.45;;;24.80;81.80;;;;;;5073774;28;20024;-75
2023/07/10 04:08:44;;;;;;;11.30;8.15;;;24.70;81.50;;;;;;5055972;28;20478;-74
2023/07/10 04:11:13;;;;;;;11.85;7.05;;;24.70;81.80;;;;;;5073887;28;20474;-74
2023/07/10 04:13:39;;;;;;;14.38;6.32;;;24.80;81.80;;;;;;5055782;28;20470;-74
2023/07/10 04:16:11;;;;;;;13.82;6.50;;;24.80;81.70;;;;;;5073674;28;20458;-74
2023/07/10 04:18:38;;;;;;;10.23;6.18;;;24.80;81.60;;;;;;5073668;28;20567;-74
2023/07/10 04:21:06;;;;;;;13.90;6.20;;;24.80;81.80;;;;;;5073595;28;20023;-75
2023/07/10 04:23:33;;;;;;;16.83;6.50;;;24.80;82.00;;;;;;5073455;28;20443;-74
2023/07/10 04:25:58;;;;;;;15.45;6.65;;;24.80;81.80;;;;;;5073441;28;20100;-74
2023/07/10 04:28:25;;;;;;;16.58;6.50;;;24.80;81.70;;;;;;5073440;28;20120;-74
2023/07/10 04:30:51;;;;;;;22.60;6.75;;;24.80;81.70;;;;;;5073616;28;20028;-74
2023/07/10 04:33:18;;;;;;;13.40;6.50;;;24.90;81.70;;;;;;5073413;28;20366;-74
2023/07/10 04:35:52;;;;;;;17.40;6.70;;;24.80;81.50;;;;;;5073375;28;20032;-74
2023/07/10 04:38:17;;;;;;;17.65;7.32;;;24.90;81.10;;;;;;5055373;28;20033;-74
2023/07/10 04:40:57;;;;;;;13.32;6.53;;;24.80;81.00;;;;;;5073317;28;20028;-74
2023/07/10 04:43:24;;;;;;;25.38;7.25;;;24.80;81.20;;;;;;5073316;28;20044;-74
2023/07/10 04:45:53;;;;;;;19.85;6.68;;;24.80;81.20;;;;;;5073051;28;20040;-74
2023/07/10 04:48:19;;;;;;;15.57;6.45;;;24.80;81.00;;;;;;5073239;28;20461;-75
2023/07/10 04:50:50;;;;;;;15.35;6.40;;;24.80;80.80;;;;;;5073339;28;20056;-74
2023/07/10 04:53:16;;;;;;;10.80;6.15;;;24.80;80.90;;;;;;5073019;28;20093;-74
2023/07/10 04:55:43;;;;;;;11.82;6.35;;;24.80;81.00;;;;;;5073349;28;20021;-74
2023/07/10 04:58:08;;;;;;;11.30;6.68;;;24.90;81.30;;;;;;5072810;28;20498;-74
2023/07/10 05:00:34;;;;;;;9.13;6.03;;;24.90;81.40;;;;;;5072925;28;20025;-74
2023/07/10 05:03:02;;;;;;;12.20;6.15;;;24.90;81.20;;;;;;5072761;28;20040;-74
2023/07/10 05:05:28;;;;;;;11.68;6.28;;;25.00;81.20;;;;;;5072809;28;20024;-74
2023/07/10 05:07:54;;;;;;;12.23;6.45;;;25.00;80.90;;;;;;5072753;28;20538;-74
2023/07/10 05:10:20;;;;;;;12.68;6.40;;;25.00;80.80;;;;;;5054943;28;20036;-74
2023/07/10 05:12:45;;;;;;;9.70;6.55;;;25.10;80.90;;;;;;5055016;28;20394;-74
2023/07/10 05:15:11;;;;;;;14.45;6.30;;;25.10;80.70;;;;;;5072841;28;20074;-74
2023/07/10 05:17:37;;;;;;;11.30;6.30;;;25.00;80.60;;;;;;5072858;28;20482;-74
2023/07/10 05:20:03;;;;;;;12.20;6.82;;;25.10;80.70;;;;;;5072434;28;20021;-75
2023/07/10 05:22:29;;;;;;;18.40;6.63;;;25.10;80.60;;;;;;5072657;28;20017;-74
2023/07/10 05:24:55;;;;;;;13.35;6.30;;;25.10;80.50;;;;;;5072739;28;20028;-74
2023/07/10 05:27:20;;;;;;;14.23;6.45;;;25.10;80.60;;;;;;5073196;28;20513;-74
2023/07/10 05:29:46;;;;;;;19.60;7.20;;;25.10;80.70;;;;;;5073002;28;20046;-74
2023/07/10 05:32:12;;;;;;;15.73;6.57;;;25.10;80.80;;;;;;5072801;28;20462;-74
2023/07/10 05:34:37;;;;;;;19.13;7.47;;;25.10;80.90;;;;;;5072371;28;20024;-74
2023/07/10 05:37:03;;;;;;;19.42;6.82;;;25.20;81.00;;;;;;5072612;28;20039;-74
2023/07/10 05:39:30;;;;;;;12.75;6.95;;;25.20;81.30;;;;;;5072723;28;20119;-75
2023/07/10 05:41:56;;;;;;;14.23;6.28;;;25.20;81.40;;;;;;5072866;28;20378;-73
2023/07/10 05:44:22;;;;;;;13.25;6.40;;;25.20;81.50;;;;;;5072299;28;20078;-73
2023/07/10 05:46:47;;;;;;;10.30;6.00;;;25.20;81.40;;;;;;5072715;28;20099;-74
2023/07/10 05:49:13;;;;;;;13.10;6.13;;;25.30;81.20;;;;;;5072433;28;20020;-73
2023/07/10 05:51:39;;;;;;;11.20;6.70;;;25.30;81.00;;;;;;5072527;28;20109;-73
2023/07/10 05:54:05;;;;;;;14.88;6.13;;;25.40;81.00;;;;;;5072340;28;20031;-73
2023/07/10 05:56:31;;;;;;;14.57;6.32;;;25.40;81.10;;;;;;5072026;28;20033;-74
2023/07/10 05:58:56;;;;;;;10.52;6.20;;;25.40;81.00;;;;;;5072488;28;20024;-73
2023/07/10 06:01:22;;;;;;;11.30;6.28;;;25.50;80.90;;;;;;5072557;28;20048;-74
2023/07/10 06:03:48;;;;;;;17.85;6.10;;;25.60;81.10;;;;;;5072368;28;20039;-73
2023/07/10 06:06:14;;;;;;;10.68;6.15;;;25.60;80.80;;;;;;5072264;28;20103;-74
2023/07/10 06:08:40;;;;;;;9.52;5.68;;;25.70;80.50;;;;;;5072567;28;20042;-74
2023/07/10 06:11:08;;;;;;;9.60;6.30;;;25.70;80.50;;;;;;5072381;28;20013;-74
2023/07/10 06:13:34;;;;;;;14.77;5.95;;;25.70;80.40;;;;;;5072117;28;20024;-74
2023/07/10 06:16:03;;;;;;;15.55;6.20;;;25.70;80.40;;;;;;5071960;28;20083;-74
2023/07/10 06:18:29;;;;;;;9.02;6.30;;;25.80;80.20;;;;;;5072181;28;20028;-74
2023/07/10 06:20:57;;;;;;;10.20;6.38;;;25.80;79.90;;;;;;5072489;28;20020;-74
2023/07/10 06:23:25;;;;;;;10.52;6.40;;;25.90;79.60;;;;;;5072250;28;20078;-74
2023/07/10 06:25:51;;;;;;;14.40;6.03;;;25.90;79.40;;;;;;5071884;28;20099;-74
2023/07/10 06:28:17;;;;;;;10.82;6.00;;;25.90;79.20;;;;;;5072209;28;20020;-74
2023/07/10 06:30:52;;;;;;;11.90;6.38;;;26.00;79.00;;;;;;5072339;28;20025;-73
2023/07/10 06:33:17;;;;;;;12.77;6.63;;;26.00;78.70;;;;;;5074090;28;20063;-73
2023/07/10 06:35:43;;;;;;;9.75;6.43;;;26.10;78.70;;;;;;5075740;28;20060;-73
2023/07/10 06:38:09;;;;;;;9.80;5.57;;;26.10;78.70;;;;;;5075599;28;20033;-73
2023/07/10 06:40:35;;;;;;;11.70;5.88;;;26.20;78.90;;;;;;5075511;28;20382;-73
2023/07/10 06:43:00;;;;;;;14.27;6.43;;;26.20;78.70;;;;;;5075653;28;20032;-73
2023/07/10 06:45:26;;;;;;;10.02;5.80;;;26.20;78.40;;;;;;5075442;28;20032;-73
2023/07/10 06:47:52;;;;;;;15.05;5.20;;;26.30;78.10;;;;;;5075466;28;20125;-73
2023/07/10 06:50:18;;;;;;;10.98;5.95;;;26.30;78.10;;;;;;5075334;28;20025;-73
2023/07/10 06:52:45;;;;;;;10.63;5.50;;;26.40;78.40;;;;;;5075528;28;20055;-73
2023/07/10 06:55:14;;;;;;;11.18;5.75;;;26.50;78.30;;;;;;5075170;28;20025;-75
2023/07/10 06:57:40;;;;;;;10.85;5.97;;;26.50;78.00;;;;;;5075254;28;20037;-75
2023/07/10 07:00:08;;;;;;;8.45;5.75;;;26.50;77.90;;;;;;5075333;28;20027;-75
2023/07/10 07:02:34;;;;;;;14.10;6.22;;;26.60;77.60;;;;;;5075125;28;20024;-74
2023/07/10 07:05:00;;;;;;;15.38;6.38;;;26.60;77.60;;;;;;5074882;28;20099;-76
2023/07/10 07:07:26;;;;;;;10.20;5.80;;;26.70;77.50;;;;;;5074858;28;20513;-75
2023/07/10 07:09:52;;;;;;;9.63;6.38;;;26.70;76.90;;;;;;5074835;28;20024;-75
2023/07/10 07:12:18;;;;;;;10.43;5.70;;;26.80;76.70;;;;;;5074824;28;20036;-75
2023/07/10 07:14:44;;;;;;;9.75;5.95;;;26.80;76.60;;;;;;5074817;28;20056;-72
2023/07/10 07:17:09;;;;;;;10.50;6.38;;;26.90;76.80;;;;;;5074600;28;20052;-72
2023/07/10 07:19:35;;;;;;;11.82;5.97;;;27.00;76.30;;;;;;5074632;28;20100;-73
2023/07/10 07:22:01;;;;;;;8.07;6.03;;;27.00;75.90;;;;;;5074800;28;20043;-73
2023/07/10 07:24:27;;;;;;;14.20;6.32;;;27.00;75.40;;;;;;5074608;28;20108;-72
2023/07/10 07:26:52;;;;;;;10.93;6.18;;;27.00;74.70;;;;;;5074550;28;20471;-72
2023/07/10 07:29:18;;;;;;;10.90;6.40;;;27.10;74.30;;;;;;5074482;28;20020;-72
2023/07/10 07:31:44;;;;;;;8.80;5.85;;;27.10;73.60;;;;;;5074693;28;20041;-75
2023/07/10 07:34:10;;;;;;;10.57;6.18;;;27.10;73.50;;;;;;5074518;28;20021;-75
2023/07/10 07:36:36;;;;;;;9.93;6.25;;;27.20;73.20;;;;;;5074532;28;20086;-75
2023/07/10 07:39:04;;;;;;;11.73;5.85;;;27.20;73.20;;;;;;5074666;28;20028;-75
2023/07/10 07:41:34;;;;;;;13.45;6.95;;;27.20;73.40;;;;;;5074603;28;20021;-75
2023/07/10 07:44:01;;;;;;;7.88;5.72;;;27.30;73.80;;;;;;5073915;28;20099;-75
2023/07/10 07:46:27;;;;;;;12.00;6.07;;;27.40;73.50;;;;;;5074352;28;20489;-72
2023/07/10 07:48:53;;;;;;;12.10;6.78;;;27.40;73.20;;;;;;5074187;28;20490;-73
2023/07/10 07:51:19;;;;;;;16.50;7.07;;;27.40;73.20;;;;;;5074141;28;20020;-72
2023/07/10 07:53:45;;;;;;;15.60;7.00;;;27.50;72.80;;;;;;5074081;28;20064;-73
2023/07/10 07:56:11;;;;;;;13.57;6.38;;;27.60;72.50;;;;;;5074245;28;20048;-73
2023/07/10 07:58:37;;;;;;;9.10;6.05;;;27.60;72.40;;;;;;5073925;28;20036;-73
2023/07/10 08:01:03;;;;;;;11.05;6.30;;;27.70;72.40;;;;;;5073858;28;20089;-74
2023/07/10 08:03:29;;;;;;;10.85;6.03;;;27.70;72.20;;;;;;5073884;28;20021;-73
2023/07/10 08:05:56;;;;;;;10.13;6.78;;;27.80;72.50;;;;;;5074111;28;20017;-74
2023/07/10 08:08:22;;;;;;;12.45;6.18;;;27.80;72.60;;;;;;5073982;28;20032;-73
2023/07/10 08:10:49;;;;;;;11.77;5.82;;;27.90;72.50;;;;;;5073745;28;20048;-74
2023/07/10 08:13:18;;;;;;;7.63;5.63;;;27.90;72.40;;;;;;5073583;28;20028;-73
2023/07/10 08:15:44;;;;;;;10.00;6.43;;;28.00;72.80;;;;;;5055575;28;20048;-73
2023/07/10 08:18:10;;;;;;;10.00;6.32;;;28.10;72.30;;;;;;5073543;28;20036;-74
2023/07/10 08:20:36;;;;;;;8.60;5.68;;;28.20;71.50;;;;;;5073394;28;20032;-74
2023/07/10 08:23:03;;;;;;;15.25;6.28;;;28.30;71.90;;;;;;5073503;28;20070;-74
2023/07/10 08:25:29;;;;;;;10.77;6.40;;;28.30;71.50;;;;;;5073474;28;20466;-74
2023/07/10 08:27:58;;;;;;;13.07;6.20;;;28.40;71.50;;;;;;5073273;28;20454;-74
2023/07/10 08:30:24;;;;;;;15.05;5.75;;;28.40;71.10;;;;;;5073362;28;20524;-74
2023/07/10 08:32:50;;;;;;;9.90;6.00;;;28.50;70.70;;;;;;5073410;28;20021;-74
2023/07/10 08:35:16;;;;;;;8.27;5.97;;;28.60;71.00;;;;;;5055578;28;20016;-74
2023/07/10 08:37:41;;;;;;;10.15;6.18;;;28.60;71.10;;;;;;5073410;28;20028;-74
2023/07/10 08:40:15;;;;;;;11.48;6.40;;;28.70;70.80;;;;;;5073198;28;20090;-74
2023/07/10 08:42:42;;;;;;;14.45;5.85;;;28.80;69.90;;;;;;5073638;28;20042;-74
2023/07/10 08:45:15;;;;;;;8.32;5.47;;;28.80;69.80;;;;;;5073152;28;20108;-75
2023/07/10 08:47:46;;;;;;;11.23;6.18;;;28.90;70.00;;;;;;5073319;28;20025;-74
2023/07/10 08:50:22;;;;;;;8.57;5.80;;;28.90;69.60;;;;;;5055314;28;20025;-74
2023/07/10 08:53:12;;;;;;;9.40;6.07;;;29.00;69.40;;;;;;5072772;28;20021;-74
2023/07/10 08:55:51;;;;;;;11.35;6.15;;;29.00;69.40;;;;;;5072565;28;20056;-74
2023/07/10 08:58:24;;;;;;;14.70;6.47;;;29.00;69.30;;;;;;5072959;28;20068;-74
2023/07/10 09:00:57;;;;;;;10.57;6.18;;;29.10;69.00;;;;;;5072820;28;20105;-74
2023/07/10 09:03:49;;;;;;;11.02;6.03;;;29.10;69.00;;;;;;5073003;28;20356;-74
2023/07/10 09:06:21;;;;;;;14.52;6.25;;;29.20;69.10;;;;;;5055041;28;20065;-74
2023/07/10 09:08:51;;;;;;;11.02;6.18;;;29.20;68.60;;;;;;5072988;28;20541;-73
2023/07/10 09:11:18;;;;;;;13.35;6.25;;;29.20;68.10;;;;;;5055439;28;20036;-74
2023/07/10 09:13:51;;;;;;;15.45;6.15;;;29.30;68.20;;;;;;5072977;28;20031;-74
2023/07/10 09:16:20;;;;;;;13.88;5.63;;;29.40;67.40;;;;;;5080183;22;20045;-74
2023/07/10 09:19:03;;;;;;;12.25;6.10;;;29.40;66.80;;;;;;5072821;28;20044;-74
2023/07/10 09:21:35;;;;;;;10.95;6.20;;;29.50;66.40;;;;;;5072771;28;20070;-74
2023/07/10 09:24:03;;;;;;;12.40;5.93;;;29.50;67.00;;;;;;5072801;28;20029;-74
2023/07/10 09:26:37;;;;;;;9.15;5.57;;;29.60;66.10;;;;;;5073072;28;20075;-74
2023/07/10 09:29:09;;;;;;;12.27;5.97;;;29.60;65.30;;;;;;5073000;28;20031;-74
2023/07/10 09:31:59;;;;;;;9.30;5.95;;;29.70;65.10;;;;;;5072773;28;20485;-74
2023/07/10 09:34:30;;;;;;;11.50;6.43;;;29.80;64.50;;;;;;5072686;28;20028;-74
2023/07/10 09:36:58;;;;;;;9.52;6.45;;;29.80;64.70;;;;;;5072946;28;20515;-74
2023/07/10 09:39:29;;;;;;;6.75;4.78;;;29.90;65.00;;;;;;5072668;28;20024;-74
2023/07/10 09:41:58;;;;;;;8.18;5.50;;;29.90;64.60;;;;;;5072588;28;20453;-74
2023/07/10 09:44:34;;;;;;;7.43;5.43;;;30.00;63.60;;;;;;5072517;28;20024;-74
2023/07/10 09:47:07;;;;;;;10.57;5.10;;;30.10;61.90;;;;;;5072548;28;20032;-74
2023/07/10 09:49:40;;;;;;;9.38;5.05;;;30.10;60.70;;;;;;5072696;28;20470;-74
2023/07/10 09:52:32;;;;;;;10.45;4.70;;;30.20;59.70;;;;;;5072433;28;20048;-74
2023/07/10 09:55:11;;;;;;;6.88;4.95;;;30.30;58.50;;;;;;5072944;28;20082;-74
2023/07/10 09:57:57;;;;;;;6.80;4.72;;;30.40;58.90;;;;;;5072486;28;20029;-74
2023/07/10 10:00:23;;;;;;;10.88;5.53;;;30.40;58.10;;;;;;5072362;28;20063;-75
2023/07/10 10:02:56;;;;;;;9.18;5.03;;;30.50;57.80;;;;;;5072521;28;20438;-74
2023/07/10 10:05:22;;;;;;;9.65;5.38;;;30.50;57.70;;;;;;5072557;28;20449;-74
2023/07/10 10:07:50;;;;;;;9.23;5.07;;;30.60;58.00;;;;;;5075018;28;20024;-74
2023/07/10 10:10:29;;;;;;;9.57;5.07;;;30.60;58.50;;;;;;5076458;28;20153;-74
2023/07/10 10:13:01;;;;;;;9.77;5.57;;;30.60;60.10;;;;;;5076327;28;20432;-74
2023/07/10 10:16:03;;;;;;;11.35;5.55;;;30.60;60.80;;;;;;5075792;28;20031;-74
2023/07/10 10:18:47;;;;;;;11.15;5.68;;;30.70;61.60;;;;;;5075919;28;20032;-74
2023/07/10 10:21:18;;;;;;;11.68;5.25;;;30.80;62.30;;;;;;5076118;28;20017;-74
2023/07/10 10:23:48;;;;;;;9.20;5.63;;;30.80;63.30;;;;;;5076019;28;20031;-74
2023/07/10 10:26:25;;;;;;;13.55;6.22;;;30.90;63.60;;;;;;5075880;28;20543;-74
2023/07/10 10:29:18;;;;;;;9.73;5.05;;;30.90;63.40;;;;;;5075794;28;20028;-74
2023/07/10 10:31:53;;;;;;;10.70;5.60;;;31.10;63.70;;;;;;5075926;28;20100;-74
2023/07/10 10:34:51;;;;;;;8.43;5.30;;;31.20;64.10;;;;;;5075873;28;20024;-74
2023/07/10 10:37:32;;;;;;;15.32;5.45;;;31.20;64.20;;;;;;5068463;28;20055;-74
2023/07/10 10:40:31;;;;;;;9.53;5.53;;;31.20;63.70;;;;;;5075831;28;20103;-75
2023/07/10 10:43:18;;;;;;;10.63;5.10;;;31.30;63.70;;;;;;5075456;28;20028;-74
2023/07/10 10:45:55;;;;;;;7.43;5.35;;;31.40;64.30;;;;;;5075734;28;20017;-74
2023/07/10 10:48:51;;;;;;;12.95;5.60;;;31.40;63.30;;;;;;5075375;28;20021;-74
2023/07/10 10:51:27;;;;;;;12.57;6.05;;;31.50;63.30;;;;;;5075022;28;20028;-74
2023/07/10 10:54:11;;;;;;;14.02;5.85;;;31.50;62.30;;;;;;5075380;28;20035;-74
2023/07/10 10:57:11;;;;;;;14.95;5.80;;;31.60;62.10;;;;;;5075179;28;20487;-74
2023/07/10 10:59:44;;;;;;;7.97;5.72;;;31.60;61.70;;;;;;5033905;28;20039;-74
2023/07/10 11:02:47;;;;;;;11.77;5.78;;;31.60;61.90;;;;;;5075249;28;20052;-74
2023/07/10 11:05:20;;;;;;;10.30;6.63;;;31.70;61.70;;;;;;5075056;28;20028;-74
2023/07/10 11:07:51;;;;;;;14.10;6.20;;;31.70;62.10;;;;;;5075061;28;20028;-74
2023/07/10 11:10:27;;;;;;;8.00;5.82;;;31.80;61.40;;;;;;5075108;28;20031;-74
2023/07/10 11:12:54;;;;;;;10.25;5.35;;;31.80;60.40;;;;;;5075259;28;20020;-74
2023/07/10 11:15:21;;;;;;;9.25;5.95;;;31.90;59.60;;;;;;5074891;28;20082;-74
2023/07/10 11:17:51;;;;;;;18.60;6.00;;;31.90;59.20;;;;;;5074092;28;20440;-74
2023/07/10 11:20:19;;;;;;;8.30;5.60;;;31.90;59.40;;;;;;5056869;28;20131;-74
2023/07/10 11:22:56;;;;;;;7.07;5.18;;;31.80;59.30;;;;;;5074850;28;20025;-74
2023/07/10 11:25:32;;;;;;;9.70;5.80;;;31.70;59.90;;;;;;5074915;28;20073;-74
2023/07/10 11:28:03;;;;;;;9.00;5.28;;;31.70;59.40;;;;;;5074693;28;20024;-74
2023/07/10 11:30:32;;;;;;;17.38;5.53;;;31.70;59.20;;;;;;5074736;28;20028;-74
2023/07/10 11:33:01;;;;;;;11.20;6.00;;;31.70;59.50;;;;;;5074193;28;20028;-74
2023/07/10 11:35:28;;;;;;;14.23;5.30;;;31.80;60.10;;;;;;5074390;28;20470;-74
2023/07/10 11:38:02;;;;;;;9.45;5.63;;;31.90;59.80;;;;;;5074347;28;20041;-74
2023/07/10 11:40:28;;;;;;;9.50;5.10;;;31.90;59.40;;;;;;5074234;28;20534;-74
2023/07/10 11:43:25;;;;;;;14.65;5.50;;;32.00;59.60;;;;;;5074490;28;20021;-74
2023/07/10 11:45:53;;;;;;;13.40;6.63;;;32.10;59.20;;;;;;5040259;28;20424;-74
2023/07/10 11:48:38;;;;;;;11.25;5.13;;;32.10;57.80;;;;;;5074336;28;20024;-74
2023/07/10 11:51:03;;;;;;;14.50;5.32;;;32.20;58.10;;;;;;5074273;28;20028;-74
2023/07/10 11:53:30;;;;;;;6.97;5.28;;;32.20;57.80;;;;;;5074248;28;20029;-74
2023/07/10 11:56:13;;;;;;;9.60;5.55;;;32.20;57.80;;;;;;5074065;28;20024;-74
2023/07/10 11:58:40;;;;;;;8.73;5.82;;;32.30;58.10;;;;;;5073941;28;20432;-74
2023/07/10 12:01:20;;;;;;;8.00;5.05;;;32.30;58.00;;;;;;5073845;28;20020;-74
2023/07/10 12:03:46;;;;;;;8.82;5.85;;;32.40;57.60;;;;;;5073867;28;20077;-74
2023/07/10 12:06:19;;;;;;;11.82;6.45;;;32.50;57.30;;;;;;5074005;28;20020;-75
2023/07/10 12:08:49;;;;;;;7.93;5.32;;;32.50;57.00;;;;;;5073856;28;20020;-74
2023/07/10 12:11:33;;;;;;;11.43;5.72;;;32.50;56.60;;;;;;5074032;28;20036;-74
2023/07/10 12:14:13;;;;;;;14.80;5.57;;;32.50;56.40;;;;;;5073697;28;20028;-74
2023/07/10 12:16:55;;;;;;;8.90;5.22;;;32.60;55.70;;;;;;5073625;28;20051;-74
2023/07/10 12:19:26;;;;;;;15.07;5.63;;;32.50;56.00;;;;;;5073538;28;20036;-74
2023/07/10 12:21:53;;;;;;;10.52;5.45;;;32.50;56.60;;;;;;5073460;28;20021;-74
2023/07/10 12:24:19;;;;;;;11.18;4.90;;;32.60;56.90;;;;;;5073332;28;20052;-74
2023/07/10 12:26:55;;;;;;;9.68;5.38;;;32.60;57.20;;;;;;5073462;28;20497;-74
2023/07/10 12:29:21;;;;;;;13.75;5.30;;;32.70;57.20;;;;;;5073176;28;20074;-74
2023/07/10 12:31:47;;;;;;;13.30;5.07;;;32.70;56.70;;;;;;5072808;28;20017;-74
2023/07/10 12:34:23;;;;;;;11.30;5.53;;;32.80;56.80;;;;;;5073453;28;20025;-73
2023/07/10 12:36:51;;;;;;;9.40;5.80;;;32.80;56.60;;;;;;5073120;28;20037;-74
2023/07/10 12:39:18;;;;;;;12.98;6.20;;;32.80;56.10;;;;;;5073233;28;20470;-74
2023/07/10 12:41:45;;;;;;;6.20;5.40;;;32.80;56.40;;;;;;5073047;28;20474;-74
2023/07/10 12:44:41;;;;;;;10.70;5.50;;;32.80;56.60;;;;;;5073270;28;20440;-74
2023/07/10 12:47:14;;;;;;;14.18;5.35;;;32.90;57.10;;;;;;5071854;28;20526;-74
2023/07/10 12:49:49;;;;;;;16.15;5.60;;;32.90;56.60;;;;;;5055144;28;20117;-74
2023/07/10 12:52:17;;;;;;;7.45;5.45;;;32.90;56.90;;;;;;5073047;28;20398;-74
2023/07/10 12:54:46;;;;;;;9.13;5.53;;;33.00;56.90;;;;;;5073199;28;20029;-74
2023/07/10 12:57:26;;;;;;;9.30;6.18;;;33.00;56.30;;;;;;5073141;28;20021;-74